Terminal Aerodrome Forecast
Issued by NWS Blacksburg, VA

Home | Current Version | Previous Version | Text Only | Print | Product List | Glossary On
Versions: 1 2 3 4 5 6 7 8 9 10 11 12 13 14 15 16 17 18 19 20 21 22 23 24 25 26 27 28 29 30
000
FTUS41 KRNK 222320
TAFBLF
TAF
KBLF 222320Z 2300/2324 25008KT P6SM -SHRA OVC070
      TEMPO 2302/2304 3SM SHRA SCT012 OVC025
     FM230600 27006KT 6SM -RADZ BR SCT003 OVC008
     FM231500 29006KT P6SM OVC025
     FM231800 31006KT P6SM BKN040=

USA.gov is the U.S. government's official web portal to all federal, state and local government web resources and services.